Time;durP1;ratioP1;P1;durP2;ratioP2;P2;SDS_P1;SDS_P2;PMS_P1;PMS_P2;Temp;Humidity;BMP_temperature;BMP_pressure;BME280_temperature;BME280_humidity;BME280_pressure;Samples;Min_cycle;Max_cycle;Signal;HPM_P1;HPM_P2
2023/11/28 00:01:32;;;;;;;10.65;8.75;;;0.30;99.90;;;;;;5056534;28;20209;-62
2023/11/28 00:04:00;;;;;;;12.25;8.85;;;0.30;99.90;;;;;;5056552;28;20711;-61
2023/11/28 00:06:27;;;;;;;9.73;8.32;;;0.30;99.90;;;;;;5056615;28;20210;-62
2023/11/28 00:08:53;;;;;;;9.52;8.50;;;0.30;99.90;;;;;;5056646;28;20202;-61
2023/11/28 00:11:21;;;;;;;9.38;7.70;;;0.30;99.90;;;;;;5056334;28;20206;-63
2023/11/28 00:13:48;;;;;;;9.15;7.95;;;0.30;99.90;;;;;;5056595;28;20224;-62
2023/11/28 00:16:15;;;;;;;9.73;7.38;;;0.30;99.90;;;;;;5056333;28;20208;-62
2023/11/28 00:18:42;;;;;;;7.03;6.30;;;0.30;99.90;;;;;;5053937;28;20222;-64
2023/11/28 00:21:10;;;;;;;7.03;6.32;;;0.30;99.90;;;;;;5053659;28;20217;-62
2023/11/28 00:23:37;;;;;;;9.45;7.00;;;0.30;99.90;;;;;;5053100;28;20225;-62
2023/11/28 00:26:04;;;;;;;7.28;6.38;;;0.30;99.90;;;;;;5053054;28;20210;-62
2023/11/28 00:28:32;;;;;;;8.10;6.22;;;0.30;99.90;;;;;;5055801;28;20225;-62
2023/11/28 00:30:59;;;;;;;7.22;6.47;;;0.20;99.90;;;;;;5057672;28;20216;-61
2023/11/28 00:33:25;;;;;;;7.57;6.47;;;0.30;99.90;;;;;;5058082;28;20217;-62
2023/11/28 00:35:52;;;;;;;7.80;6.95;;;0.30;99.90;;;;;;5058048;28;20200;-61
2023/11/28 00:38:21;;;;;;;6.47;5.78;;;0.30;99.90;;;;;;5057871;28;20233;-63
2023/11/28 00:40:48;;;;;;;6.70;6.00;;;0.30;99.90;;;;;;5057798;28;20210;-62
2023/11/28 00:43:15;;;;;;;6.55;5.95;;;0.20;99.90;;;;;;5057422;28;20263;-62
2023/11/28 00:45:42;;;;;;;6.50;5.78;;;0.20;99.90;;;;;;5057175;28;20686;-60
2023/11/28 00:48:09;;;;;;;6.88;6.18;;;0.20;99.90;;;;;;5056731;28;20204;-61
2023/11/28 00:50:35;;;;;;;6.97;6.28;;;0.20;99.90;;;;;;5056521;28;20205;-62
2023/11/28 00:53:03;;;;;;;7.43;5.75;;;0.20;99.90;;;;;;5056958;28;20216;-61
2023/11/28 00:55:31;;;;;;;9.75;6.13;;;0.30;99.90;;;;;;5056519;28;20253;-62
2023/11/28 00:57:59;;;;;;;7.38;6.00;;;0.20;99.90;;;;;;5060567;28;20595;-62
2023/11/28 01:00:26;;;;;;;7.07;6.38;;;0.30;99.90;;;;;;5063909;28;20201;-62
2023/11/28 01:02:52;;;;;;;7.75;5.93;;;0.20;99.90;;;;;;5064867;28;20206;-61
2023/11/28 01:05:20;;;;;;;6.60;5.63;;;0.20;99.90;;;;;;5065328;28;20247;-62
2023/11/28 01:07:47;;;;;;;6.25;5.63;;;0.20;99.90;;;;;;5067299;28;20224;-61
2023/11/28 01:10:14;;;;;;;7.68;5.03;;;0.20;99.90;;;;;;5066477;28;20206;-61
2023/11/28 01:12:42;;;;;;;7.68;6.88;;;0.20;99.90;;;;;;5067158;28;20209;-62
2023/11/28 01:15:10;;;;;;;6.78;5.97;;;0.20;99.90;;;;;;5065051;28;20226;-62
2023/11/28 01:17:37;;;;;;;9.05;6.80;;;0.20;99.90;;;;;;5064585;28;20218;-62
2023/11/28 01:20:04;;;;;;;7.70;6.63;;;0.20;99.90;;;;;;5065747;28;20198;-64
2023/11/28 01:22:31;;;;;;;5.80;5.18;;;0.20;99.90;;;;;;5063524;28;20544;-62
2023/11/28 01:24:58;;;;;;;7.38;6.35;;;0.20;99.90;;;;;;5064841;28;20232;-61
2023/11/28 01:27:25;;;;;;;6.22;5.57;;;0.20;99.90;;;;;;5062772;28;20202;-62
2023/11/28 01:29:53;;;;;;;6.20;5.38;;;0.20;99.90;;;;;;5064552;28;20209;-63
2023/11/28 01:32:20;;;;;;;7.57;5.78;;;0.20;99.90;;;;;;5059691;28;20206;-62
2023/11/28 01:34:46;;;;;;;6.70;5.75;;;0.20;99.90;;;;;;5059137;28;20234;-62
2023/11/28 01:37:16;;;;;;;7.15;5.60;;;0.20;99.90;;;;;;5058442;28;20231;-63
2023/11/28 01:39:43;;;;;;;5.47;4.40;;;0.20;99.90;;;;;;5056037;28;20285;-62
2023/11/28 01:42:10;;;;;;;7.57;4.95;;;0.20;99.90;;;;;;5056333;28;20206;-62
2023/11/28 01:44:37;;;;;;;7.63;6.25;;;0.20;99.90;;;;;;5056189;28;20312;-62
2023/11/28 01:47:05;;;;;;;4.93;4.43;;;0.20;99.90;;;;;;5056072;28;20521;-61
2023/11/28 01:49:34;;;;;;;5.70;4.65;;;0.20;99.90;;;;;;5056115;28;20667;-62
2023/11/28 01:52:02;;;;;;;6.63;5.22;;;0.20;99.90;;;;;;5056232;28;20209;-62
2023/11/28 01:54:29;;;;;;;6.75;5.65;;;0.20;99.90;;;;;;5056244;28;20228;-62
2023/11/28 01:56:56;;;;;;;6.32;4.80;;;0.10;99.90;;;;;;5055367;28;20205;-61
2023/11/28 01:59:23;;;;;;;7.82;5.40;;;0.20;99.90;;;;;;5055748;28;20202;-62
2023/11/28 02:01:51;;;;;;;7.50;5.65;;;0.10;99.90;;;;;;5055536;28;20209;-63
2023/11/28 02:04:19;;;;;;;6.97;4.90;;;0.20;99.90;;;;;;5055428;28;20319;-62
2023/11/28 02:06:47;;;;;;;5.47;4.78;;;0.20;99.90;;;;;;5055729;28;20201;-62
2023/11/28 02:09:14;;;;;;;9.52;6.07;;;0.20;99.90;;;;;;5055440;28;20198;-62
2023/11/28 02:11:40;;;;;;;7.00;5.95;;;0.10;99.90;;;;;;5055782;28;20202;-62
2023/11/28 02:14:09;;;;;;;6.47;5.00;;;0.20;99.90;;;;;;5055594;28;20232;-61
2023/11/28 02:16:36;;;;;;;6.93;4.95;;;0.10;99.90;;;;;;5055241;28;20292;-62
2023/11/28 02:19:04;;;;;;;6.03;5.43;;;0.20;99.90;;;;;;5054959;28;20222;-61
2023/11/28 02:21:32;;;;;;;9.35;6.40;;;0.10;99.90;;;;;;5059753;28;20202;-61
2023/11/28 02:23:59;;;;;;;8.95;5.68;;;0.20;99.90;;;;;;5056598;28;20218;-61
2023/11/28 02:26:29;;;;;;;7.15;6.10;;;0.10;99.90;;;;;;5057647;28;20238;-62
2023/11/28 02:28:57;;;;;;;6.25;5.40;;;0.10;99.90;;;;;;5058914;28;20347;-63
2023/11/28 02:31:24;;;;;;;7.07;5.93;;;0.10;99.90;;;;;;5056347;28;20213;-63
2023/11/28 02:33:51;;;;;;;6.25;5.57;;;0.10;99.90;;;;;;5055746;28;20226;-63
2023/11/28 02:36:19;;;;;;;7.78;6.03;;;0.10;99.90;;;;;;5056815;28;20190;-62
2023/11/28 02:38:46;;;;;;;9.35;6.38;;;0.10;99.90;;;;;;5058095;28;20232;-62
2023/11/28 02:41:12;;;;;;;8.55;7.15;;;0.10;99.90;;;;;;5056695;28;20206;-61
2023/11/28 02:43:41;;;;;;;9.63;6.78;;;0.10;99.90;;;;;;5057040;28;20226;-62
2023/11/28 02:46:08;;;;;;;10.88;6.55;;;0.10;99.90;;;;;;5058232;28;20206;-61
2023/11/28 02:48:34;;;;;;;10.27;7.18;;;0.10;99.90;;;;;;5057493;28;20208;-62
2023/11/28 02:51:01;;;;;;;7.90;6.78;;;0.10;99.90;;;;;;5056679;28;20206;-60
2023/11/28 02:53:28;;;;;;;10.65;7.75;;;0.10;99.90;;;;;;5055728;28;20201;-61
2023/11/28 02:55:55;;;;;;;9.52;7.68;;;0.10;99.90;;;;;;5055366;28;20202;-61
2023/11/28 02:58:21;;;;;;;8.68;6.38;;;0.10;99.90;;;;;;5055870;28;20240;-61
2023/11/28 03:00:49;;;;;;;7.10;6.30;;;0.10;99.90;;;;;;5055157;28;20666;-62
2023/11/28 03:03:16;;;;;;;11.45;6.65;;;0.10;99.90;;;;;;5054621;28;20590;-61
2023/11/28 03:05:43;;;;;;;9.82;6.53;;;0.10;99.90;;;;;;5055330;28;20201;-61
2023/11/28 03:08:10;;;;;;;9.05;6.80;;;0.10;99.90;;;;;;5055347;28;20197;-61
2023/11/28 03:10:36;;;;;;;10.02;6.75;;;0.00;99.90;;;;;;5054990;28;20210;-62
2023/11/28 03:13:03;;;;;;;10.02;7.22;;;0.00;99.90;;;;;;5055018;28;20197;-61
2023/11/28 03:15:30;;;;;;;8.95;7.05;;;0.00;99.90;;;;;;5054805;28;20224;-60
2023/11/28 03:17:58;;;;;;;9.25;6.60;;;0.00;99.90;;;;;;5054766;28;20225;-62
2023/11/28 03:20:25;;;;;;;8.20;6.68;;;0.00;99.90;;;;;;5055138;28;20202;-61
2023/11/28 03:22:51;;;;;;;10.63;7.47;;;0.00;99.90;;;;;;5054675;28;20212;-60
2023/11/28 03:25:18;;;;;;;6.95;6.20;;;0.00;99.90;;;;;;5054800;28;20252;-62
2023/11/28 03:27:45;;;;;;;7.10;6.00;;;0.00;99.90;;;;;;5054464;28;20204;-61
2023/11/28 03:30:13;;;;;;;7.85;5.15;;;0.00;99.90;;;;;;5054039;28;20204;-62
2023/11/28 03:32:39;;;;;;;9.75;6.30;;;0.00;99.90;;;;;;5054182;28;20206;-61
2023/11/28 03:35:08;;;;;;;10.90;7.30;;;0.10;99.90;;;;;;5054755;28;20225;-61
2023/11/28 03:37:35;;;;;;;9.70;6.68;;;0.10;99.90;;;;;;5054716;28;20201;-60
2023/11/28 03:40:02;;;;;;;10.65;7.63;;;0.00;99.90;;;;;;5055372;28;20202;-61
2023/11/28 03:42:28;;;;;;;11.75;6.75;;;0.10;99.90;;;;;;5054559;28;20213;-61
2023/11/28 03:44:55;;;;;;;8.93;6.82;;;0.10;99.90;;;;;;5054562;28;20221;-60
2023/11/28 03:47:22;;;;;;;11.55;6.80;;;0.10;99.90;;;;;;5054072;28;20206;-61
2023/11/28 03:49:49;;;;;;;10.65;6.53;;;0.10;99.90;;;;;;5053924;28;20198;-61
2023/11/28 03:52:17;;;;;;;11.07;7.30;;;0.10;99.90;;;;;;5054053;28;20206;-62
2023/11/28 03:54:44;;;;;;;10.52;6.80;;;0.10;99.90;;;;;;5054338;28;20275;-62
2023/11/28 03:57:11;;;;;;;10.40;8.00;;;0.10;99.90;;;;;;5053859;28;20679;-62
2023/11/28 03:59:38;;;;;;;12.15;8.73;;;0.00;99.90;;;;;;5054699;28;20221;-62
2023/11/28 04:02:05;;;;;;;14.15;7.25;;;0.00;99.90;;;;;;5053916;28;20201;-61
2023/11/28 04:04:32;;;;;;;11.30;7.65;;;0.10;99.90;;;;;;5053972;28;20298;-61
2023/11/28 04:06:59;;;;;;;10.57;7.90;;;0.10;99.90;;;;;;5054219;28;20202;-61
2023/11/28 04:12:38;;;;;;;13.20;8.23;;;0.00;99.90;;;;;;5133587;27;20533;-62
2023/11/28 04:15:05;;;;;;;11.45;7.53;;;0.00;99.90;;;;;;5133644;28;20219;-61
2023/11/28 04:17:32;;;;;;;13.45;7.72;;;0.00;99.90;;;;;;5132792;28;20251;-62
2023/11/28 04:19:59;;;;;;;11.57;7.65;;;0.00;99.90;;;;;;5132400;28;20294;-62
2023/11/28 04:22:26;;;;;;;16.92;9.23;;;0.00;99.90;;;;;;5132198;28;20201;-62
2023/11/28 04:24:52;;;;;;;12.15;8.07;;;0.00;99.90;;;;;;5132170;28;20237;-61
2023/11/28 04:27:19;;;;;;;11.25;7.50;;;0.00;99.90;;;;;;5131244;28;20213;-62
2023/11/28 04:29:47;;;;;;;14.80;7.95;;;0.00;99.90;;;;;;5131856;28;20210;-63
2023/11/28 04:32:14;;;;;;;15.50;7.32;;;0.00;99.90;;;;;;5131316;28;20215;-61
2023/11/28 04:34:41;;;;;;;14.40;7.38;;;0.00;99.90;;;;;;5131108;28;20600;-62
2023/11/28 04:37:08;;;;;;;12.02;7.80;;;0.00;99.90;;;;;;5131665;28;20210;-62
2023/11/28 04:39:35;;;;;;;11.05;6.72;;;0.00;99.90;;;;;;5131419;28;20268;-62
2023/11/28 04:42:01;;;;;;;8.90;6.22;;;0.00;99.90;;;;;;5131330;28;20199;-62
2023/11/28 04:44:28;;;;;;;12.60;7.43;;;0.00;99.90;;;;;;5131026;28;20594;-62
2023/11/28 04:46:56;;;;;;;11.32;7.30;;;-0.10;99.90;;;;;;5131101;28;20201;-60
2023/11/28 04:49:23;;;;;;;9.55;6.18;;;-0.10;99.90;;;;;;5131548;28;20199;-61
2023/11/28 04:51:50;;;;;;;12.38;6.95;;;-0.10;99.90;;;;;;5130638;28;20211;-61
2023/11/28 04:54:17;;;;;;;10.57;7.25;;;-0.10;99.90;;;;;;5130923;28;20227;-61
2023/11/28 04:56:44;;;;;;;10.90;7.05;;;-0.10;99.90;;;;;;5130861;28;20206;-61
2023/11/28 04:59:11;;;;;;;13.60;7.07;;;-0.20;99.90;;;;;;5130798;28;20201;-62
2023/11/28 05:01:44;;;;;;;10.40;7.45;;;-0.20;99.90;;;;;;5131126;28;20202;-62
2023/11/28 05:04:12;;;;;;;12.85;7.40;;;-0.20;99.90;;;;;;5131226;28;20223;-60
2023/11/28 05:06:38;;;;;;;13.63;6.85;;;-0.20;99.90;;;;;;5131304;27;20199;-62
2023/11/28 05:09:06;;;;;;;10.82;6.28;;;-0.20;99.90;;;;;;5132124;28;20199;-61
2023/11/28 05:11:33;;;;;;;14.95;7.18;;;-0.20;99.90;;;;;;5131177;28;20229;-61
2023/11/28 05:13:59;;;;;;;12.40;6.65;;;-0.20;99.90;;;;;;5132486;28;20225;-61
2023/11/28 05:16:26;;;;;;;8.80;6.22;;;-0.20;99.90;;;;;;5131118;28;20664;-61
2023/11/28 05:18:53;;;;;;;10.05;6.40;;;-0.20;99.90;;;;;;5132409;28;20598;-61
2023/11/28 05:21:21;;;;;;;16.05;6.32;;;-0.20;99.90;;;;;;5130505;28;20205;-62
2023/11/28 05:23:48;;;;;;;9.15;5.75;;;-0.20;99.90;;;;;;5118058;27;20219;-62
2023/11/28 05:26:15;;;;;;;9.00;5.10;;;-0.20;99.90;;;;;;5116666;28;20199;-62
2023/11/28 05:28:42;;;;;;;6.10;4.35;;;-0.30;99.90;;;;;;5116585;28;20207;-64
2023/11/28 05:31:08;;;;;;;8.30;5.18;;;-0.30;99.90;;;;;;5117131;28;20220;-62
2023/11/28 05:33:36;;;;;;;7.05;5.10;;;-0.30;99.90;;;;;;5121017;28;20230;-62
2023/11/28 05:36:05;;;;;;;6.80;4.57;;;-0.30;99.90;;;;;;5117587;28;20199;-61
2023/11/28 05:38:34;;;;;;;6.45;4.72;;;-0.30;99.90;;;;;;5116599;28;20613;-61
2023/11/28 05:41:01;;;;;;;12.02;4.75;;;-0.30;99.90;;;;;;5117374;28;20200;-61
2023/11/28 05:43:30;;;;;;;9.10;4.65;;;-0.40;99.90;;;;;;5116663;28;20207;-61
2023/11/28 05:45:57;;;;;;;7.97;4.82;;;-0.40;99.90;;;;;;5116976;28;20680;-62
2023/11/28 05:48:24;;;;;;;8.85;4.75;;;-0.40;99.90;;;;;;5116920;28;20196;-60
2023/11/28 05:50:51;;;;;;;4.88;3.90;;;-0.40;99.90;;;;;;5117590;28;20199;-62
2023/11/28 05:53:19;;;;;;;9.52;5.40;;;-0.40;99.90;;;;;;5118461;28;20715;-62
2023/11/28 05:55:47;;;;;;;7.38;4.30;;;-0.50;99.90;;;;;;5121151;28;20214;-61
2023/11/28 05:58:15;;;;;;;6.07;4.00;;;-0.50;99.90;;;;;;5120763;28;20740;-61
2023/11/28 06:00:42;;;;;;;4.95;3.85;;;-0.50;99.90;;;;;;5118250;28;20199;-62
2023/11/28 06:03:09;;;;;;;4.20;3.80;;;-0.50;99.90;;;;;;5120188;28;20200;-62
2023/11/28 06:05:37;;;;;;;6.80;3.90;;;-0.50;99.90;;;;;;5118231;28;20684;-61
2023/11/28 06:08:04;;;;;;;9.20;3.67;;;-0.60;99.90;;;;;;5117431;28;20200;-61
2023/11/28 06:10:30;;;;;;;5.80;3.38;;;-0.60;99.90;;;;;;5118866;28;20675;-60
2023/11/28 06:12:59;;;;;;;4.50;3.20;;;-0.60;99.90;;;;;;5125447;28;20214;-60
2023/11/28 06:15:26;;;;;;;5.55;3.90;;;-0.60;99.90;;;;;;5125139;28;20721;-62
2023/11/28 06:17:53;;;;;;;6.15;3.92;;;-0.70;99.90;;;;;;5125486;28;20206;-61
2023/11/28 06:20:20;;;;;;;3.83;2.85;;;-0.70;99.90;;;;;;5125137;28;20268;-62
2023/11/28 06:22:47;;;;;;;7.15;3.55;;;-0.70;99.90;;;;;;5126433;28;20726;-61
2023/11/28 06:25:14;;;;;;;6.28;3.95;;;-0.70;99.90;;;;;;5124881;28;20219;-61
2023/11/28 06:27:41;;;;;;;5.85;3.13;;;-0.70;99.90;;;;;;5125460;28;20669;-60
2023/11/28 06:30:12;;;;;;;3.72;2.78;;;-0.70;99.90;;;;;;5125675;28;20200;-61
2023/11/28 06:32:39;;;;;;;4.43;3.30;;;-0.70;99.90;;;;;;5124620;28;20287;-63
2023/11/28 06:35:08;;;;;;;5.05;3.40;;;-0.70;99.90;;;;;;5122913;28;20220;-62
2023/11/28 06:37:34;;;;;;;4.97;3.17;;;-0.80;99.90;;;;;;5122363;28;20203;-62
2023/11/28 06:40:01;;;;;;;4.75;3.00;;;-0.80;99.90;;;;;;5122417;28;20200;-61
2023/11/28 06:42:28;;;;;;;4.57;3.30;;;-0.80;99.90;;;;;;5120952;28;20292;-60
2023/11/28 06:44:55;;;;;;;3.65;3.05;;;-0.80;99.90;;;;;;5122793;28;20224;-62
2023/11/28 06:47:23;;;;;;;3.75;2.75;;;-0.80;99.90;;;;;;5121896;28;20276;-60
2023/11/28 06:49:51;;;;;;;3.38;3.08;;;-0.90;99.90;;;;;;5121116;28;20199;-61
2023/11/28 06:52:17;;;;;;;3.15;2.80;;;-0.80;99.90;;;;;;5120535;28;20338;-62
2023/11/28 06:54:44;;;;;;;5.32;2.90;;;-0.80;99.90;;;;;;5120138;28;20303;-60
2023/11/28 06:57:11;;;;;;;3.47;2.70;;;-0.80;99.90;;;;;;5122816;28;20195;-62
2023/11/28 06:59:38;;;;;;;2.70;2.47;;;-0.80;99.90;;;;;;5121502;27;20200;-61
2023/11/28 07:02:05;;;;;;;4.43;3.20;;;-0.80;99.90;;;;;;5119684;28;20210;-61
2023/11/28 07:04:33;;;;;;;4.38;3.30;;;-0.90;99.90;;;;;;5120785;28;20225;-62
2023/11/28 07:07:00;;;;;;;4.85;2.75;;;-0.80;99.90;;;;;;5121948;28;20205;-62
2023/11/28 07:09:26;;;;;;;6.43;2.33;;;-0.90;99.90;;;;;;5121678;28;20200;-62
2023/11/28 07:11:53;;;;;;;4.15;2.75;;;-0.90;99.90;;;;;;5119555;28;20222;-60
2023/11/28 07:14:21;;;;;;;5.60;3.05;;;-0.90;99.90;;;;;;5120734;28;20215;-62
2023/11/28 07:16:48;;;;;;;5.30;2.38;;;-0.90;99.90;;;;;;5120832;28;20252;-62
2023/11/28 07:19:15;;;;;;;3.38;2.60;;;-0.90;99.90;;;;;;5119904;28;20206;-65
2023/11/28 07:21:43;;;;;;;3.60;2.70;;;-1.00;99.90;;;;;;5120651;28;20565;-68
2023/11/28 07:24:10;;;;;;;4.63;2.65;;;-1.00;99.90;;;;;;5118934;28;20242;-63
2023/11/28 07:26:37;;;;;;;4.35;3.00;;;-1.00;99.90;;;;;;5119411;28;20199;-64
2023/11/28 07:29:03;;;;;;;5.05;3.60;;;-1.00;99.90;;;;;;5121194;28;20200;-63
2023/11/28 07:31:31;;;;;;;2.38;2.17;;;-1.10;99.90;;;;;;5119884;28;20215;-63
2023/11/28 07:33:58;;;;;;;3.00;2.70;;;-1.10;99.90;;;;;;5122344;28;20273;-64
2023/11/28 07:36:25;;;;;;;3.72;3.00;;;-1.20;99.90;;;;;;5118652;28;20199;-64
2023/11/28 07:38:53;;;;;;;4.93;2.67;;;-1.20;99.90;;;;;;5118037;28;20691;-64
2023/11/28 07:41:20;;;;;;;4.65;2.50;;;-1.30;99.90;;;;;;5118073;28;20333;-64
2023/11/28 07:43:46;;;;;;;5.25;2.90;;;-1.30;99.90;;;;;;5120091;28;20228;-63
2023/11/28 07:46:14;;;;;;;2.58;2.20;;;-1.30;99.90;;;;;;5120913;28;20199;-64
2023/11/28 07:48:41;;;;;;;4.68;3.50;;;-1.40;99.90;;;;;;5120590;28;20275;-64
2023/11/28 07:51:09;;;;;;;5.20;3.30;;;-1.40;99.90;;;;;;5120613;28;20290;-63
2023/11/28 07:53:36;;;;;;;4.68;2.83;;;-1.40;99.90;;;;;;5121017;28;20224;-64
2023/11/28 07:56:05;;;;;;;4.45;2.75;;;-1.40;99.90;;;;;;5119613;28;20203;-64
2023/11/28 07:58:33;;;;;;;6.40;3.13;;;-1.50;99.90;;;;;;5117733;28;20203;-63
2023/11/28 08:01:00;;;;;;;3.03;2.42;;;-1.50;99.90;;;;;;5119821;28;20209;-64
2023/11/28 08:03:27;;;;;;;6.57;3.25;;;-1.40;99.90;;;;;;5120455;28;20200;-63
2023/11/28 08:05:54;;;;;;;2.47;2.22;;;-1.40;99.90;;;;;;5119316;28;20272;-64
2023/11/28 08:08:23;;;;;;;4.43;2.25;;;-1.40;99.90;;;;;;5120287;28;20204;-65
2023/11/28 08:10:50;;;;;;;3.65;3.15;;;-1.40;99.90;;;;;;5120882;28;20233;-64
2023/11/28 08:13:18;;;;;;;3.65;2.90;;;-1.40;99.90;;;;;;5121599;28;20223;-64
2023/11/28 08:15:45;;;;;;;3.90;2.85;;;-1.40;99.90;;;;;;5121314;28;20204;-64
2023/11/28 08:18:13;;;;;;;2.55;2.15;;;-1.40;99.90;;;;;;5122243;28;20234;-64
2023/11/28 08:20:40;;;;;;;6.35;3.20;;;-1.40;99.90;;;;;;5121834;28;20290;-63
2023/11/28 08:23:06;;;;;;;5.03;2.80;;;-1.40;99.90;;;;;;5121588;28;20195;-64
2023/11/28 08:25:33;;;;;;;4.45;2.85;;;-1.40;99.90;;;;;;5123109;28;20254;-64
2023/11/28 08:28:02;;;;;;;4.78;2.78;;;-1.40;99.90;;;;;;5123287;28;20199;-64
2023/11/28 08:30:31;;;;;;;6.32;2.90;;;-1.40;99.90;;;;;;5121597;28;20339;-64
2023/11/28 08:32:58;;;;;;;4.30;2.80;;;-1.40;99.90;;;;;;5120505;28;20752;-63
2023/11/28 08:35:25;;;;;;;4.00;2.80;;;-1.30;99.90;;;;;;5121553;28;20223;-63
2023/11/28 08:37:52;;;;;;;8.57;3.10;;;-1.30;99.90;;;;;;5121812;28;20199;-64
2023/11/28 08:40:19;;;;;;;3.30;2.85;;;-1.20;99.90;;;;;;5118640;28;20204;-64
2023/11/28 08:42:45;;;;;;;2.78;2.58;;;-1.20;99.90;;;;;;5119344;28;20195;-64
2023/11/28 08:45:12;;;;;;;4.65;3.08;;;-1.00;99.90;;;;;;5120215;28;20689;-66
2023/11/28 08:47:41;;;;;;;3.53;3.00;;;-0.90;99.90;;;;;;5121713;28;20195;-62
2023/11/28 08:50:10;;;;;;;5.45;3.08;;;-0.70;99.90;;;;;;5119177;28;20277;-64
2023/11/28 08:52:37;;;;;;;3.85;3.00;;;-0.50;99.90;;;;;;5120478;28;20311;-62
2023/11/28 08:55:05;;;;;;;3.35;2.55;;;-0.40;99.90;;;;;;5120356;28;20662;-65
2023/11/28 08:57:34;;;;;;;3.78;2.78;;;-0.30;99.90;;;;;;5120931;28;20804;-63
2023/11/28 09:00:02;;;;;;;2.42;2.20;;;-0.20;99.90;;;;;;5124121;28;20210;-64
2023/11/28 09:02:29;;;;;;;3.33;2.70;;;-0.10;99.90;;;;;;5121495;28;20192;-63
2023/11/28 09:04:57;;;;;;;3.13;2.20;;;-0.10;99.90;;;;;;5116246;28;20219;-63
2023/11/28 09:07:24;;;;;;;4.05;2.33;;;-0.20;99.90;;;;;;5117095;28;20249;-65
2023/11/28 09:09:51;;;;;;;2.95;2.33;;;-0.20;99.90;;;;;;5117989;28;20264;-64
2023/11/28 09:12:18;;;;;;;3.10;2.42;;;-0.30;99.90;;;;;;5116646;28;20310;-66
2023/11/28 09:14:47;;;;;;;2.78;2.45;;;-0.40;99.90;;;;;;5116834;28;20269;-64
2023/11/28 09:17:14;;;;;;;2.40;2.20;;;-0.40;99.90;;;;;;5116265;28;20797;-64
2023/11/28 09:19:41;;;;;;;3.60;2.20;;;-0.40;99.90;;;;;;5116939;28;20347;-64
2023/11/28 09:22:10;;;;;;;7.25;2.80;;;-0.40;99.90;;;;;;5117449;28;20200;-64
2023/11/28 09:24:38;;;;;;;3.22;2.40;;;-0.50;99.90;;;;;;5116701;28;20230;-65
2023/11/28 09:27:07;;;;;;;2.92;2.60;;;-0.50;99.90;;;;;;5118113;28;20196;-63
2023/11/28 09:29:35;;;;;;;3.20;2.47;;;-0.50;99.90;;;;;;5117220;28;20626;-64
2023/11/28 09:32:03;;;;;;;3.53;2.20;;;-0.50;99.90;;;;;;5117532;28;20245;-65
2023/11/28 09:34:31;;;;;;;4.03;2.58;;;-0.50;99.90;;;;;;5116847;28;20219;-64
2023/11/28 09:36:58;;;;;;;4.07;2.65;;;-0.50;99.90;;;;;;5116620;28;20200;-64
2023/11/28 09:39:26;;;;;;;4.32;2.90;;;-0.50;99.90;;;;;;5116779;28;20737;-64
2023/11/28 09:41:54;;;;;;;3.88;2.53;;;-0.50;99.90;;;;;;5116140;28;20203;-63
2023/11/28 09:44:25;;;;;;;3.10;2.30;;;-0.50;99.90;;;;;;5116299;28;20231;-66
2023/11/28 09:46:56;;;;;;;3.03;2.65;;;-0.40;99.90;;;;;;5116143;28;20249;-64
2023/11/28 09:49:25;;;;;;;2.90;2.70;;;-0.40;99.90;;;;;;5116355;28;20184;-64
2023/11/28 09:51:56;;;;;;;3.55;2.45;;;-0.40;99.90;;;;;;5118012;28;20206;-64
2023/11/28 09:54:24;;;;;;;3.92;3.20;;;-0.30;99.90;;;;;;5117635;28;20223;-64
2023/11/28 09:56:53;;;;;;;3.38;2.67;;;-0.30;99.90;;;;;;5115796;28;20206;-64
2023/11/28 09:59:21;;;;;;;3.13;2.55;;;-0.30;99.90;;;;;;5116346;28;20196;-63
2023/11/28 10:01:50;;;;;;;4.00;2.90;;;-0.30;99.90;;;;;;5116277;28;20203;-63
2023/11/28 10:04:21;;;;;;;3.88;2.90;;;-0.20;99.90;;;;;;5116514;28;20243;-63
2023/11/28 10:06:49;;;;;;;3.58;2.83;;;-0.20;99.90;;;;;;5116415;28;20188;-63
2023/11/28 10:09:17;;;;;;;2.97;2.50;;;-0.10;99.90;;;;;;5116562;28;20653;-64
2023/11/28 10:11:44;;;;;;;3.95;2.85;;;0.00;99.90;;;;;;5118033;28;20665;-63
2023/11/28 10:14:14;;;;;;;3.30;3.00;;;0.00;99.90;;;;;;5116067;28;20258;-63
2023/11/28 10:16:46;;;;;;;5.03;3.50;;;0.10;99.90;;;;;;5116305;28;20557;-63
2023/11/28 10:19:13;;;;;;;4.03;3.50;;;0.20;99.90;;;;;;5116432;28;20573;-63
2023/11/28 10:21:40;;;;;;;3.85;2.83;;;0.20;99.90;;;;;;5116943;28;20721;-64
2023/11/28 10:24:09;;;;;;;3.55;2.78;;;0.30;99.90;;;;;;5117059;28;20279;-64
2023/11/28 10:26:37;;;;;;;3.20;2.47;;;0.30;99.90;;;;;;5116136;28;20199;-63
2023/11/28 10:29:05;;;;;;;4.22;3.13;;;0.30;99.90;;;;;;5116308;28;20203;-64
2023/11/28 10:31:39;;;;;;;2.90;2.60;;;0.40;99.90;;;;;;5115670;28;20268;-64
2023/11/28 10:34:09;;;;;;;4.25;3.00;;;0.40;99.90;;;;;;5115423;28;20224;-64
2023/11/28 10:36:43;;;;;;;2.88;2.30;;;0.40;99.90;;;;;;5116276;28;20187;-62
2023/11/28 10:39:10;;;;;;;2.83;2.40;;;0.40;99.90;;;;;;5115926;28;20267;-64
2023/11/28 10:41:38;;;;;;;3.38;3.08;;;0.50;99.90;;;;;;5115599;28;20218;-64
2023/11/28 10:44:06;;;;;;;3.30;3.00;;;0.50;99.90;;;;;;5115233;28;20264;-64
2023/11/28 10:46:34;;;;;;;4.47;2.75;;;0.60;99.90;;;;;;5115579;27;20222;-63
2023/11/28 10:49:05;;;;;;;3.35;2.63;;;0.60;99.90;;;;;;5115316;28;20527;-65
2023/11/28 10:51:33;;;;;;;2.85;2.63;;;0.60;99.90;;;;;;5116248;28;20211;-63
2023/11/28 10:54:05;;;;;;;2.75;2.55;;;0.60;99.90;;;;;;5115925;28;20235;-64
2023/11/28 10:56:43;;;;;;;3.70;2.72;;;0.50;99.90;;;;;;5115860;28;20216;-64
2023/11/28 10:59:17;;;;;;;2.60;2.40;;;0.50;99.90;;;;;;5116068;28;20605;-62
2023/11/28 11:01:46;;;;;;;2.92;2.72;;;0.40;99.90;;;;;;5115948;28;20187;-64
2023/11/28 11:04:14;;;;;;;3.78;2.60;;;0.40;99.90;;;;;;5115891;28;20220;-64
2023/11/28 11:06:41;;;;;;;2.75;2.13;;;0.50;99.90;;;;;;5115559;28;20204;-63
2023/11/28 11:09:11;;;;;;;3.97;3.08;;;0.50;99.90;;;;;;5114225;28;20204;-62
2023/11/28 11:11:39;;;;;;;4.15;2.60;;;0.50;99.90;;;;;;5115324;28;20280;-63
2023/11/28 11:14:16;;;;;;;3.70;2.97;;;0.50;99.90;;;;;;5115012;28;20228;-64
2023/11/28 11:16:50;;;;;;;3.78;2.83;;;0.50;99.90;;;;;;5115334;28;20511;-64
2023/11/28 11:19:19;;;;;;;3.78;3.22;;;0.50;99.90;;;;;;5114911;28;20655;-64
2023/11/28 11:21:52;;;;;;;4.28;3.20;;;0.50;99.90;;;;;;5114640;28;20203;-64
2023/11/28 11:24:21;;;;;;;3.30;3.00;;;0.40;99.90;;;;;;5115386;28;20639;-63
2023/11/28 11:26:49;;;;;;;2.92;2.63;;;0.40;99.90;;;;;;5115316;28;20207;-65
2023/11/28 11:29:34;;;;;;;5.90;2.90;;;0.30;99.90;;;;;;5114774;28;20235;-64
2023/11/28 11:32:01;;;;;;;4.88;3.50;;;0.20;99.90;;;;;;5115055;28;20206;-64
2023/11/28 11:34:37;;;;;;;4.28;3.85;;;0.20;99.90;;;;;;5115023;28;20284;-65
2023/11/28 11:37:09;;;;;;;6.15;3.90;;;0.40;99.90;;;;;;5114583;28;20625;-64
2023/11/28 11:39:37;;;;;;;3.97;3.50;;;0.50;99.90;;;;;;5114148;28;20240;-64
2023/11/28 11:42:04;;;;;;;5.15;3.50;;;0.70;99.90;;;;;;5114547;28;20623;-64
2023/11/28 11:44:31;;;;;;;3.33;3.03;;;0.80;99.90;;;;;;5114488;28;20269;-64
2023/11/28 11:47:13;;;;;;;4.47;3.67;;;0.90;99.90;;;;;;5114295;28;20233;-65
2023/11/28 11:49:44;;;;;;;3.33;3.10;;;0.90;99.90;;;;;;5115953;28;20270;-65
2023/11/28 11:52:11;;;;;;;4.35;3.20;;;0.90;99.90;;;;;;5116883;28;20637;-64
2023/11/28 11:54:38;;;;;;;5.72;3.58;;;0.80;99.90;;;;;;5115105;28;20223;-63
2023/11/28 11:57:06;;;;;;;6.35;3.45;;;0.80;99.90;;;;;;5115890;28;20260;-64
2023/11/28 11:59:33;;;;;;;3.65;3.20;;;0.80;99.90;;;;;;5115720;28;20203;-64
2023/11/28 12:02:01;;;;;;;4.57;3.75;;;0.80;99.90;;;;;;5116155;28;20200;-65
2023/11/28 12:04:28;;;;;;;4.13;3.72;;;0.80;99.90;;;;;;5115587;28;20231;-65
2023/11/28 12:07:05;;;;;;;4.03;3.33;;;0.80;99.90;;;;;;5115046;28;20290;-64
2023/11/28 12:09:33;;;;;;;6.50;4.18;;;0.80;99.90;;;;;;5116065;28;20707;-65
2023/11/28 12:12:00;;;;;;;3.60;3.20;;;0.70;99.90;;;;;;5116302;28;20268;-65
2023/11/28 12:14:27;;;;;;;4.63;4.22;;;0.70;99.90;;;;;;5116733;28;20227;-64
2023/11/28 12:16:54;;;;;;;5.88;3.22;;;0.80;99.90;;;;;;5116261;28;20203;-64
2023/11/28 12:19:21;;;;;;;3.58;3.28;;;0.80;99.90;;;;;;5115587;28;20208;-65
2023/11/28 12:21:48;;;;;;;5.38;3.67;;;0.80;99.90;;;;;;5114546;28;20681;-63
2023/11/28 12:24:16;;;;;;;5.50;3.08;;;0.80;99.90;;;;;;5114823;28;20215;-64
2023/11/28 12:26:43;;;;;;;4.07;3.65;;;0.80;99.90;;;;;;5114857;28;20199;-64
2023/11/28 12:29:12;;;;;;;3.95;3.55;;;0.80;99.90;;;;;;5115565;28;20629;-64
2023/11/28 12:31:39;;;;;;;4.15;2.92;;;0.70;99.90;;;;;;5115254;28;20214;-64
2023/11/28 12:34:08;;;;;;;4.65;3.30;;;0.80;99.90;;;;;;5118798;28;20280;-64
2023/11/28 12:36:35;;;;;;;4.20;3.65;;;0.80;99.90;;;;;;5120224;28;20586;-64
2023/11/28 12:39:05;;;;;;;4.70;3.45;;;0.70;99.90;;;;;;5119745;28;20676;-62
2023/11/28 12:41:35;;;;;;;4.45;4.05;;;0.70;99.90;;;;;;5119761;28;20209;-64
2023/11/28 12:44:04;;;;;;;4.55;3.35;;;0.70;99.90;;;;;;5119960;28;20215;-64
2023/11/28 12:46:32;;;;;;;4.75;3.92;;;0.70;99.90;;;;;;5118758;27;20195;-65
2023/11/28 12:48:59;;;;;;;4.35;3.80;;;0.70;99.90;;;;;;5118525;28;20208;-63
2023/11/28 12:51:28;;;;;;;4.65;4.18;;;0.80;99.90;;;;;;5118883;28;20696;-64
2023/11/28 12:54:01;;;;;;;5.32;3.78;;;0.80;99.90;;;;;;5118340;28;20266;-65
2023/11/28 12:56:32;;;;;;;5.53;3.67;;;0.80;99.90;;;;;;5120037;28;20180;-64